sensor_id;sensor_type;location;lat;lon;timestamp;P1;durP1;ratioP1;P2;durP2;ratioP2
4565;SDS011;2295;51.050;14.608;2022-07-21T00:00:16;4.40;;;4.00;;
4565;SDS011;2295;51.050;14.608;2022-07-21T00:02:45;5.40;;;3.80;;
4565;SDS011;2295;51.050;14.608;2022-07-21T00:05:14;5.37;;;4.03;;
4565;SDS011;2295;51.050;14.608;2022-07-21T00:07:42;9.83;;;4.50;;
4565;SDS011;2295;51.050;14.608;2022-07-21T00:10:11;5.50;;;4.27;;
4565;SDS011;2295;51.050;14.608;2022-07-21T00:12:40;4.70;;;4.20;;
4565;SDS011;2295;51.050;14.608;2022-07-21T00:15:11;5.80;;;4.20;;
4565;SDS011;2295;51.050;14.608;2022-07-21T00:17:40;4.63;;;3.77;;
4565;SDS011;2295;51.050;14.608;2022-07-21T00:20:09;5.33;;;3.97;;
4565;SDS011;2295;51.050;14.608;2022-07-21T00:22:38;7.20;;;4.77;;
4565;SDS011;2295;51.050;14.608;2022-07-21T00:25:07;5.80;;;3.90;;
4565;SDS011;2295;51.050;14.608;2022-07-21T00:27:36;4.97;;;4.37;;
4565;SDS011;2295;51.050;14.608;2022-07-21T00:30:05;6.30;;;4.13;;
4565;SDS011;2295;51.050;14.608;2022-07-21T00:32:35;11.53;;;3.70;;
4565;SDS011;2295;51.050;14.608;2022-07-21T00:35:04;7.03;;;3.97;;
4565;SDS011;2295;51.050;14.608;2022-07-21T00:37:33;7.00;;;4.10;;
4565;SDS011;2295;51.050;14.608;2022-07-21T00:40:02;4.97;;;3.60;;
4565;SDS011;2295;51.050;14.608;2022-07-21T00:42:31;12.53;;;4.00;;
4565;SDS011;2295;51.050;14.608;2022-07-21T00:45:00;7.60;;;4.30;;
4565;SDS011;2295;51.050;14.608;2022-07-21T00:47:30;5.13;;;3.77;;
4565;SDS011;2295;51.050;14.608;2022-07-21T00:50:01;6.60;;;4.00;;
4565;SDS011;2295;51.050;14.608;2022-07-21T00:52:31;9.87;;;4.33;;
4565;SDS011;2295;51.050;14.608;2022-07-21T00:54:59;9.67;;;4.00;;
4565;SDS011;2295;51.050;14.608;2022-07-21T00:57:29;6.60;;;4.00;;
4565;SDS011;2295;51.050;14.608;2022-07-21T00:59:57;7.13;;;4.27;;
4565;SDS011;2295;51.050;14.608;2022-07-21T01:02:26;10.27;;;4.43;;
4565;SDS011;2295;51.050;14.608;2022-07-21T01:04:54;16.67;;;3.93;;
4565;SDS011;2295;51.050;14.608;2022-07-21T01:07:24;7.53;;;4.53;;
4565;SDS011;2295;51.050;14.608;2022-07-21T01:09:53;4.50;;;3.37;;
4565;SDS011;2295;51.050;14.608;2022-07-21T01:12:23;5.40;;;3.80;;
4565;SDS011;2295;51.050;14.608;2022-07-21T01:14:51;17.37;;;3.60;;
4565;SDS011;2295;51.050;14.608;2022-07-21T01:17:20;7.00;;;4.10;;
4565;SDS011;2295;51.050;14.608;2022-07-21T01:19:49;8.17;;;3.50;;
4565;SDS011;2295;51.050;14.608;2022-07-21T01:22:19;7.50;;;3.50;;
4565;SDS011;2295;51.050;14.608;2022-07-21T01:24:47;6.03;;;3.67;;
4565;SDS011;2295;51.050;14.608;2022-07-21T01:27:16;7.47;;;3.20;;
4565;SDS011;2295;51.050;14.608;2022-07-21T01:29:44;9.67;;;3.57;;
4565;SDS011;2295;51.050;14.608;2022-07-21T01:32:13;6.23;;;4.17;;
4565;SDS011;2295;51.050;14.608;2022-07-21T01:34:41;6.30;;;3.23;;
4565;SDS011;2295;51.050;14.608;2022-07-21T01:37:10;5.10;;;3.80;;
4565;SDS011;2295;51.050;14.608;2022-07-21T01:39:40;5.93;;;3.37;;
4565;SDS011;2295;51.050;14.608;2022-07-21T01:42:26;17.00;;;3.77;;
4565;SDS011;2295;51.050;14.608;2022-07-21T01:44:55;5.63;;;3.50;;
4565;SDS011;2295;51.050;14.608;2022-07-21T01:47:24;12.50;;;3.80;;
4565;SDS011;2295;51.050;14.608;2022-07-21T01:49:53;10.83;;;3.47;;
4565;SDS011;2295;51.050;14.608;2022-07-21T01:52:21;7.27;;;3.30;;
4565;SDS011;2295;51.050;14.608;2022-07-21T01:54:51;4.83;;;3.27;;
4565;SDS011;2295;51.050;14.608;2022-07-21T01:57:19;9.67;;;3.50;;
4565;SDS011;2295;51.050;14.608;2022-07-21T01:59:48;9.63;;;3.50;;
4565;SDS011;2295;51.050;14.608;2022-07-21T02:02:16;12.13;;;3.67;;
4565;SDS011;2295;51.050;14.608;2022-07-21T02:04:47;22.40;;;3.57;;
4565;SDS011;2295;51.050;14.608;2022-07-21T02:07:16;12.10;;;3.83;;
4565;SDS011;2295;51.050;14.608;2022-07-21T02:09:44;3.63;;;3.30;;
4565;SDS011;2295;51.050;14.608;2022-07-21T02:12:14;7.30;;;3.13;;
4565;SDS011;2295;51.050;14.608;2022-07-21T02:14:42;5.70;;;3.40;;
4565;SDS011;2295;51.050;14.608;2022-07-21T02:17:11;6.83;;;3.23;;
4565;SDS011;2295;51.050;14.608;2022-07-21T02:19:39;6.27;;;3.70;;
4565;SDS011;2295;51.050;14.608;2022-07-21T02:22:08;6.03;;;3.70;;
4565;SDS011;2295;51.050;14.608;2022-07-21T02:24:36;4.80;;;3.00;;
4565;SDS011;2295;51.050;14.608;2022-07-21T02:27:06;5.03;;;4.00;;
4565;SDS011;2295;51.050;14.608;2022-07-21T02:29:36;4.10;;;2.80;;
4565;SDS011;2295;51.050;14.608;2022-07-21T02:32:05;4.80;;;3.13;;
4565;SDS011;2295;51.050;14.608;2022-07-21T02:34:33;5.90;;;2.90;;
4565;SDS011;2295;51.050;14.608;2022-07-21T02:37:02;4.73;;;3.80;;
4565;SDS011;2295;51.050;14.608;2022-07-21T02:39:30;6.63;;;3.50;;
4565;SDS011;2295;51.050;14.608;2022-07-21T02:41:59;4.73;;;3.20;;
4565;SDS011;2295;51.050;14.608;2022-07-21T02:44:27;5.20;;;3.13;;
4565;SDS011;2295;51.050;14.608;2022-07-21T02:46:58;10.23;;;3.77;;
4565;SDS011;2295;51.050;14.608;2022-07-21T02:49:27;4.97;;;3.43;;
4565;SDS011;2295;51.050;14.608;2022-07-21T02:51:55;7.37;;;3.90;;
4565;SDS011;2295;51.050;14.608;2022-07-21T02:54:24;4.80;;;3.47;;
4565;SDS011;2295;51.050;14.608;2022-07-21T02:56:53;3.83;;;3.00;;
4565;SDS011;2295;51.050;14.608;2022-07-21T02:59:21;11.13;;;4.23;;
4565;SDS011;2295;51.050;14.608;2022-07-21T03:01:50;7.57;;;4.37;;
4565;SDS011;2295;51.050;14.608;2022-07-21T03:04:19;4.13;;;3.60;;
4565;SDS011;2295;51.050;14.608;2022-07-21T03:06:48;6.87;;;3.90;;
4565;SDS011;2295;51.050;14.608;2022-07-21T03:09:17;7.90;;;3.60;;
4565;SDS011;2295;51.050;14.608;2022-07-21T03:11:45;6.73;;;3.73;;
4565;SDS011;2295;51.050;14.608;2022-07-21T03:14:14;8.73;;;3.37;;
4565;SDS011;2295;51.050;14.608;2022-07-21T03:16:42;4.60;;;3.50;;
4565;SDS011;2295;51.050;14.608;2022-07-21T03:19:11;7.23;;;4.10;;
4565;SDS011;2295;51.050;14.608;2022-07-21T03:21:41;4.67;;;4.10;;
4565;SDS011;2295;51.050;14.608;2022-07-21T03:24:09;7.00;;;4.07;;
4565;SDS011;2295;51.050;14.608;2022-07-21T03:26:38;8.93;;;4.10;;
4565;SDS011;2295;51.050;14.608;2022-07-21T03:29:06;6.27;;;4.60;;
4565;SDS011;2295;51.050;14.608;2022-07-21T03:31:35;18.17;;;8.00;;
4565;SDS011;2295;51.050;14.608;2022-07-21T03:34:04;39.27;;;16.57;;
4565;SDS011;2295;51.050;14.608;2022-07-21T03:36:32;8.33;;;5.00;;
4565;SDS011;2295;51.050;14.608;2022-07-21T03:39:02;9.60;;;5.97;;
4565;SDS011;2295;51.050;14.608;2022-07-21T03:41:31;7.63;;;4.80;;
4565;SDS011;2295;51.050;14.608;2022-07-21T03:44:00;7.90;;;4.50;;
4565;SDS011;2295;51.050;14.608;2022-07-21T03:46:28;10.33;;;4.07;;
4565;SDS011;2295;51.050;14.608;2022-07-21T03:48:57;8.73;;;4.30;;
4565;SDS011;2295;51.050;14.608;2022-07-21T03:51:26;8.17;;;4.30;;
4565;SDS011;2295;51.050;14.608;2022-07-21T03:53:55;4.83;;;4.33;;
4565;SDS011;2295;51.050;14.608;2022-07-21T03:56:26;6.03;;;3.70;;
4565;SDS011;2295;51.050;14.608;2022-07-21T03:58:55;4.10;;;3.67;;
4565;SDS011;2295;51.050;14.608;2022-07-21T04:01:23;16.10;;;7.70;;
4565;SDS011;2295;51.050;14.608;2022-07-21T04:03:54;11.53;;;4.70;;
4565;SDS011;2295;51.050;14.608;2022-07-21T04:06:23;9.13;;;4.53;;
4565;SDS011;2295;51.050;14.608;2022-07-21T04:08:51;4.50;;;3.43;;
4565;SDS011;2295;51.050;14.608;2022-07-21T04:11:20;6.73;;;3.40;;
4565;SDS011;2295;51.050;14.608;2022-07-21T04:13:51;7.80;;;3.80;;
4565;SDS011;2295;51.050;14.608;2022-07-21T04:16:20;7.90;;;3.63;;
4565;SDS011;2295;51.050;14.608;2022-07-21T04:18:48;7.80;;;4.27;;
4565;SDS011;2295;51.050;14.608;2022-07-21T04:21:17;7.77;;;3.70;;
4565;SDS011;2295;51.050;14.608;2022-07-21T04:23:46;7.40;;;3.50;;
4565;SDS011;2295;51.050;14.608;2022-07-21T04:26:14;3.60;;;3.30;;
4565;SDS011;2295;51.050;14.608;2022-07-21T04:28:43;3.87;;;3.40;;
4565;SDS011;2295;51.050;14.608;2022-07-21T04:31:12;3.83;;;3.33;;
4565;SDS011;2295;51.050;14.608;2022-07-21T04:33:41;4.53;;;3.50;;
4565;SDS011;2295;51.050;14.608;2022-07-21T04:36:09;9.00;;;5.70;;
4565;SDS011;2295;51.050;14.608;2022-07-21T04:38:38;8.83;;;3.37;;
4565;SDS011;2295;51.050;14.608;2022-07-21T04:41:06;5.67;;;3.80;;
4565;SDS011;2295;51.050;14.608;2022-07-21T04:43:35;5.77;;;3.80;;
4565;SDS011;2295;51.050;14.608;2022-07-21T04:46:03;8.27;;;3.30;;
4565;SDS011;2295;51.050;14.608;2022-07-21T04:48:41;6.20;;;4.90;;
4565;SDS011;2295;51.050;14.608;2022-07-21T04:51:10;4.30;;;3.50;;
4565;SDS011;2295;51.050;14.608;2022-07-21T04:53:38;5.10;;;3.70;;
4565;SDS011;2295;51.050;14.608;2022-07-21T04:56:06;5.23;;;4.37;;
4565;SDS011;2295;51.050;14.608;2022-07-21T04:58:35;5.23;;;4.17;;
4565;SDS011;2295;51.050;14.608;2022-07-21T05:01:03;6.27;;;3.37;;
4565;SDS011;2295;51.050;14.608;2022-07-21T05:03:32;4.33;;;3.57;;
4565;SDS011;2295;51.050;14.608;2022-07-21T05:06:02;6.33;;;5.20;;
4565;SDS011;2295;51.050;14.608;2022-07-21T05:08:30;8.33;;;4.80;;
4565;SDS011;2295;51.050;14.608;2022-07-21T05:10:59;13.67;;;5.43;;
4565;SDS011;2295;51.050;14.608;2022-07-21T05:13:27;11.47;;;5.20;;
4565;SDS011;2295;51.050;14.608;2022-07-21T05:15:56;21.73;;;5.40;;
4565;SDS011;2295;51.050;14.608;2022-07-21T05:18:24;12.63;;;5.47;;
4565;SDS011;2295;51.050;14.608;2022-07-21T05:20:53;8.57;;;5.57;;
4565;SDS011;2295;51.050;14.608;2022-07-21T05:23:23;11.40;;;4.90;;
4565;SDS011;2295;51.050;14.608;2022-07-21T05:25:51;11.50;;;6.60;;
4565;SDS011;2295;51.050;14.608;2022-07-21T05:28:27;80.50;;;29.57;;
4565;SDS011;2295;51.050;14.608;2022-07-21T05:30:55;137.37;;;53.10;;
4565;SDS011;2295;51.050;14.608;2022-07-21T05:33:24;158.00;;;58.07;;
4565;SDS011;2295;51.050;14.608;2022-07-21T05:35:52;90.13;;;37.70;;
4565;SDS011;2295;51.050;14.608;2022-07-21T05:38:22;59.00;;;25.40;;
4565;SDS011;2295;51.050;14.608;2022-07-21T05:40:53;24.77;;;9.80;;
4565;SDS011;2295;51.050;14.608;2022-07-21T05:43:22;33.93;;;12.97;;
4565;SDS011;2295;51.050;14.608;2022-07-21T05:45:50;28.77;;;12.23;;
4565;SDS011;2295;51.050;14.608;2022-07-21T05:48:24;18.77;;;9.47;;
4565;SDS011;2295;51.050;14.608;2022-07-21T05:50:53;18.83;;;7.67;;
4565;SDS011;2295;51.050;14.608;2022-07-21T05:53:23;18.83;;;7.13;;
4565;SDS011;2295;51.050;14.608;2022-07-21T05:55:51;14.07;;;7.47;;
4565;SDS011;2295;51.050;14.608;2022-07-21T05:58:20;9.63;;;6.40;;
4565;SDS011;2295;51.050;14.608;2022-07-21T06:00:51;13.20;;;6.80;;
4565;SDS011;2295;51.050;14.608;2022-07-21T06:03:33;18.37;;;6.57;;
4565;SDS011;2295;51.050;14.608;2022-07-21T06:06:02;9.37;;;6.67;;
4565;SDS011;2295;51.050;14.608;2022-07-21T06:08:32;15.33;;;6.20;;
4565;SDS011;2295;51.050;14.608;2022-07-21T06:11:01;7.77;;;6.77;;
4565;SDS011;2295;51.050;14.608;2022-07-21T06:13:30;12.10;;;6.97;;
4565;SDS011;2295;51.050;14.608;2022-07-21T06:15:58;18.73;;;7.23;;
4565;SDS011;2295;51.050;14.608;2022-07-21T06:18:27;10.63;;;7.73;;
4565;SDS011;2295;51.050;14.608;2022-07-21T06:20:55;11.60;;;7.33;;
4565;SDS011;2295;51.050;14.608;2022-07-21T06:23:24;8.47;;;6.60;;
4565;SDS011;2295;51.050;14.608;2022-07-21T06:25:54;9.70;;;6.87;;
4565;SDS011;2295;51.050;14.608;2022-07-21T06:28:22;8.67;;;7.00;;
4565;SDS011;2295;51.050;14.608;2022-07-21T06:30:51;7.13;;;6.43;;
4565;SDS011;2295;51.050;14.608;2022-07-21T06:33:21;10.50;;;6.80;;
4565;SDS011;2295;51.050;14.608;2022-07-21T06:35:50;6.80;;;5.90;;
4565;SDS011;2295;51.050;14.608;2022-07-21T06:38:18;22.40;;;6.33;;
4565;SDS011;2295;51.050;14.608;2022-07-21T06:40:47;11.03;;;6.60;;
4565;SDS011;2295;51.050;14.608;2022-07-21T06:43:16;8.17;;;6.23;;
4565;SDS011;2295;51.050;14.608;2022-07-21T06:45:55;17.33;;;7.00;;
4565;SDS011;2295;51.050;14.608;2022-07-21T06:48:24;12.77;;;7.00;;
4565;SDS011;2295;51.050;14.608;2022-07-21T06:50:53;12.87;;;6.57;;
4565;SDS011;2295;51.050;14.608;2022-07-21T06:53:21;9.20;;;6.50;;
4565;SDS011;2295;51.050;14.608;2022-07-21T06:55:50;13.57;;;6.23;;
4565;SDS011;2295;51.050;14.608;2022-07-21T06:58:30;7.40;;;5.90;;
4565;SDS011;2295;51.050;14.608;2022-07-21T07:01:05;7.33;;;5.60;;
4565;SDS011;2295;51.050;14.608;2022-07-21T07:03:34;8.93;;;5.80;;
4565;SDS011;2295;51.050;14.608;2022-07-21T07:06:03;9.73;;;5.90;;
4565;SDS011;2295;51.050;14.608;2022-07-21T07:08:32;14.00;;;6.10;;
4565;SDS011;2295;51.050;14.608;2022-07-21T07:11:09;5.60;;;5.03;;
4565;SDS011;2295;51.050;14.608;2022-07-21T07:13:39;8.70;;;5.53;;
4565;SDS011;2295;51.050;14.608;2022-07-21T07:16:27;9.13;;;6.00;;
4565;SDS011;2295;51.050;14.608;2022-07-21T07:18:56;10.40;;;7.00;;
4565;SDS011;2295;51.050;14.608;2022-07-21T07:21:24;6.53;;;5.20;;
4565;SDS011;2295;51.050;14.608;2022-07-21T07:23:53;5.73;;;5.00;;
4565;SDS011;2295;51.050;14.608;2022-07-21T07:26:22;16.77;;;5.63;;
4565;SDS011;2295;51.050;14.608;2022-07-21T07:28:52;22.93;;;12.17;;
4565;SDS011;2295;51.050;14.608;2022-07-21T07:31:22;11.33;;;7.10;;
4565;SDS011;2295;51.050;14.608;2022-07-21T07:33:50;10.03;;;5.80;;
4565;SDS011;2295;51.050;14.608;2022-07-21T07:36:20;10.57;;;5.30;;
4565;SDS011;2295;51.050;14.608;2022-07-21T07:38:48;9.90;;;5.33;;
4565;SDS011;2295;51.050;14.608;2022-07-21T07:41:18;9.20;;;5.40;;
4565;SDS011;2295;51.050;14.608;2022-07-21T07:43:47;4.37;;;3.97;;
4565;SDS011;2295;51.050;14.608;2022-07-21T07:46:17;14.60;;;5.40;;
4565;SDS011;2295;51.050;14.608;2022-07-21T07:48:46;9.13;;;4.60;;
4565;SDS011;2295;51.050;14.608;2022-07-21T07:51:15;14.17;;;5.00;;
4565;SDS011;2295;51.050;14.608;2022-07-21T07:53:43;7.43;;;5.07;;
4565;SDS011;2295;51.050;14.608;2022-07-21T07:56:12;6.20;;;5.03;;
4565;SDS011;2295;51.050;14.608;2022-07-21T07:58:40;10.40;;;4.80;;
4565;SDS011;2295;51.050;14.608;2022-07-21T08:01:09;7.60;;;5.40;;
4565;SDS011;2295;51.050;14.608;2022-07-21T08:03:41;6.57;;;4.40;;
4565;SDS011;2295;51.050;14.608;2022-07-21T08:06:10;17.83;;;6.33;;
4565;SDS011;2295;51.050;14.608;2022-07-21T08:08:39;8.30;;;5.00;;
4565;SDS011;2295;51.050;14.608;2022-07-21T08:11:07;8.97;;;5.13;;
4565;SDS011;2295;51.050;14.608;2022-07-21T08:13:36;6.93;;;4.90;;
4565;SDS011;2295;51.050;14.608;2022-07-21T08:16:05;12.00;;;5.60;;
4565;SDS011;2295;51.050;14.608;2022-07-21T08:18:33;13.33;;;5.73;;
4565;SDS011;2295;51.050;14.608;2022-07-21T08:21:03;9.10;;;4.37;;
4565;SDS011;2295;51.050;14.608;2022-07-21T08:23:32;10.43;;;5.20;;
4565;SDS011;2295;51.050;14.608;2022-07-21T08:26:00;7.43;;;4.50;;
4565;SDS011;2295;51.050;14.608;2022-07-21T08:28:29;16.07;;;5.83;;
4565;SDS011;2295;51.050;14.608;2022-07-21T08:30:57;8.40;;;4.50;;
4565;SDS011;2295;51.050;14.608;2022-07-21T08:33:26;7.80;;;4.10;;
4565;SDS011;2295;51.050;14.608;2022-07-21T08:35:54;4.00;;;3.70;;
4565;SDS011;2295;51.050;14.608;2022-07-21T08:38:25;8.40;;;4.20;;
4565;SDS011;2295;51.050;14.608;2022-07-21T08:40:53;10.23;;;5.10;;
4565;SDS011;2295;51.050;14.608;2022-07-21T08:43:22;4.50;;;4.10;;
4565;SDS011;2295;51.050;14.608;2022-07-21T08:45:52;7.27;;;4.40;;
4565;SDS011;2295;51.050;14.608;2022-07-21T08:48:22;12.27;;;4.33;;
4565;SDS011;2295;51.050;14.608;2022-07-21T08:50:51;6.87;;;4.67;;
4565;SDS011;2295;51.050;14.608;2022-07-21T08:53:20;8.53;;;4.17;;
4565;SDS011;2295;51.050;14.608;2022-07-21T08:55:50;6.23;;;4.93;;
4565;SDS011;2295;51.050;14.608;2022-07-21T08:58:19;4.97;;;4.10;;
4565;SDS011;2295;51.050;14.608;2022-07-21T09:00:48;10.43;;;5.00;;
4565;SDS011;2295;51.050;14.608;2022-07-21T09:03:17;6.27;;;4.73;;
4565;SDS011;2295;51.050;14.608;2022-07-21T09:06:00;8.93;;;5.00;;
4565;SDS011;2295;51.050;14.608;2022-07-21T09:08:29;5.00;;;4.50;;
4565;SDS011;2295;51.050;14.608;2022-07-21T09:11:18;5.27;;;4.87;;
4565;SDS011;2295;51.050;14.608;2022-07-21T09:13:48;6.77;;;4.27;;
4565;SDS011;2295;51.050;14.608;2022-07-21T09:16:31;5.90;;;3.87;;
4565;SDS011;2295;51.050;14.608;2022-07-21T09:19:01;6.80;;;4.00;;
4565;SDS011;2295;51.050;14.608;2022-07-21T09:21:30;8.60;;;3.95;;
4565;SDS011;2295;51.050;14.608;2022-07-21T09:24:12;6.20;;;4.30;;
4565;SDS011;2295;51.050;14.608;2022-07-21T09:26:58;8.03;;;4.80;;
4565;SDS011;2295;51.050;14.608;2022-07-21T09:29:32;14.10;;;4.97;;
4565;SDS011;2295;51.050;14.608;2022-07-21T09:32:11;6.40;;;4.30;;
4565;SDS011;2295;51.050;14.608;2022-07-21T09:34:40;7.27;;;4.43;;
4565;SDS011;2295;51.050;14.608;2022-07-21T09:37:08;4.30;;;3.73;;
4565;SDS011;2295;51.050;14.608;2022-07-21T09:39:40;7.93;;;4.50;;
4565;SDS011;2295;51.050;14.608;2022-07-21T09:42:17;4.80;;;3.50;;
4565;SDS011;2295;51.050;14.608;2022-07-21T09:44:47;7.37;;;3.80;;
4565;SDS011;2295;51.050;14.608;2022-07-21T09:47:17;6.27;;;3.70;;
4565;SDS011;2295;51.050;14.608;2022-07-21T09:49:45;4.00;;;3.03;;
4565;SDS011;2295;51.050;14.608;2022-07-21T09:52:35;8.00;;;3.90;;
4565;SDS011;2295;51.050;14.608;2022-07-21T09:55:05;3.83;;;3.23;;
4565;SDS011;2295;51.050;14.608;2022-07-21T09:57:35;8.13;;;4.17;;
4565;SDS011;2295;51.050;14.608;2022-07-21T10:00:06;5.60;;;3.20;;
4565;SDS011;2295;51.050;14.608;2022-07-21T10:02:43;4.67;;;3.57;;
4565;SDS011;2295;51.050;14.608;2022-07-21T10:05:14;8.63;;;3.40;;
4565;SDS011;2295;51.050;14.608;2022-07-21T10:07:45;6.13;;;4.30;;
4565;SDS011;2295;51.050;14.608;2022-07-21T10:10:14;5.07;;;4.40;;
4565;SDS011;2295;51.050;14.608;2022-07-21T10:12:48;8.20;;;3.70;;
4565;SDS011;2295;51.050;14.608;2022-07-21T10:15:17;5.20;;;3.60;;
4565;SDS011;2295;51.050;14.608;2022-07-21T10:17:46;5.47;;;3.90;;
4565;SDS011;2295;51.050;14.608;2022-07-21T10:20:18;7.85;;;3.50;;
4565;SDS011;2295;51.050;14.608;2022-07-21T10:22:53;6.30;;;3.37;;
4565;SDS011;2295;51.050;14.608;2022-07-21T10:25:24;8.87;;;3.90;;
4565;SDS011;2295;51.050;14.608;2022-07-21T10:28:13;4.03;;;3.40;;
4565;SDS011;2295;51.050;14.608;2022-07-21T10:30:42;8.30;;;4.00;;
4565;SDS011;2295;51.050;14.608;2022-07-21T10:33:12;8.10;;;3.70;;
4565;SDS011;2295;51.050;14.608;2022-07-21T10:35:41;4.07;;;3.30;;
4565;SDS011;2295;51.050;14.608;2022-07-21T10:38:24;5.77;;;3.70;;
4565;SDS011;2295;51.050;14.608;2022-07-21T10:40:53;5.73;;;3.90;;
4565;SDS011;2295;51.050;14.608;2022-07-21T10:43:44;4.73;;;3.63;;
4565;SDS011;2295;51.050;14.608;2022-07-21T10:49:07;3.77;;;3.50;;
4565;SDS011;2295;51.050;14.608;2022-07-21T10:51:37;3.97;;;3.67;;
4565;SDS011;2295;51.050;14.608;2022-07-21T10:54:21;3.83;;;3.43;;
4565;SDS011;2295;51.050;14.608;2022-07-21T11:02:27;4.30;;;3.90;;
4565;SDS011;2295;51.050;14.608;2022-07-21T11:05:06;8.60;;;3.90;;
4565;SDS011;2295;51.050;14.608;2022-07-21T11:08:18;5.20;;;4.30;;
4565;SDS011;2295;51.050;14.608;2022-07-21T11:10:48;4.50;;;4.10;;
4565;SDS011;2295;51.050;14.608;2022-07-21T11:13:18;6.20;;;4.17;;
4565;SDS011;2295;51.050;14.608;2022-07-21T11:15:53;10.17;;;4.47;;
4565;SDS011;2295;51.050;14.608;2022-07-21T11:21:01;7.15;;;4.30;;
4565;SDS011;2295;51.050;14.608;2022-07-21T11:23:41;6.80;;;4.33;;
4565;SDS011;2295;51.050;14.608;2022-07-21T11:26:10;5.80;;;5.00;;
4565;SDS011;2295;51.050;14.608;2022-07-21T11:28:40;6.13;;;4.50;;
4565;SDS011;2295;51.050;14.608;2022-07-21T11:31:09;4.77;;;4.47;;
4565;SDS011;2295;51.050;14.608;2022-07-21T11:33:39;5.37;;;4.40;;
4565;SDS011;2295;51.050;14.608;2022-07-21T11:36:07;8.87;;;4.70;;
4565;SDS011;2295;51.050;14.608;2022-07-21T11:41:22;5.73;;;5.07;;
4565;SDS011;2295;51.050;14.608;2022-07-21T11:43:50;5.83;;;5.27;;
4565;SDS011;2295;51.050;14.608;2022-07-21T11:46:20;26.02;;;9.43;;
4565;SDS011;2295;51.050;14.608;2022-07-21T11:48:48;8.30;;;4.50;;
4565;SDS011;2295;51.050;14.608;2022-07-21T11:51:27;5.33;;;4.80;;
4565;SDS011;2295;51.050;14.608;2022-07-21T11:53:56;12.13;;;4.63;;
4565;SDS011;2295;51.050;14.608;2022-07-21T11:56:26;10.10;;;4.53;;
4565;SDS011;2295;51.050;14.608;2022-07-21T11:59:07;9.50;;;4.67;;
4565;SDS011;2295;51.050;14.608;2022-07-21T12:01:53;6.90;;;4.43;;
4565;SDS011;2295;51.050;14.608;2022-07-21T12:04:26;5.43;;;4.93;;
4565;SDS011;2295;51.050;14.608;2022-07-21T12:06:55;10.27;;;5.50;;
4565;SDS011;2295;51.050;14.608;2022-07-21T12:09:24;5.87;;;5.00;;
4565;SDS011;2295;51.050;14.608;2022-07-21T12:11:54;11.83;;;5.30;;
4565;SDS011;2295;51.050;14.608;2022-07-21T12:14:38;7.90;;;5.23;;
4565;SDS011;2295;51.050;14.608;2022-07-21T12:17:06;8.13;;;5.83;;
4565;SDS011;2295;51.050;14.608;2022-07-21T12:19:35;7.40;;;5.53;;
4565;SDS011;2295;51.050;14.608;2022-07-21T12:22:04;6.37;;;5.70;;
4565;SDS011;2295;51.050;14.608;2022-07-21T12:24:49;6.07;;;5.30;;
4565;SDS011;2295;51.050;14.608;2022-07-21T12:27:19;7.50;;;6.00;;
4565;SDS011;2295;51.050;14.608;2022-07-21T12:29:48;7.00;;;6.03;;
4565;SDS011;2295;51.050;14.608;2022-07-21T12:35:00;7.60;;;6.80;;
4565;SDS011;2295;51.050;14.608;2022-07-21T12:37:51;6.73;;;6.03;;
4565;SDS011;2295;51.050;14.608;2022-07-21T12:40:25;8.50;;;6.47;;
4565;SDS011;2295;51.050;14.608;2022-07-21T12:43:13;9.90;;;6.13;;
4565;SDS011;2295;51.050;14.608;2022-07-21T12:45:45;8.53;;;6.63;;
4565;SDS011;2295;51.050;14.608;2022-07-21T12:48:15;7.20;;;6.30;;
4565;SDS011;2295;51.050;14.608;2022-07-21T12:50:56;12.07;;;6.10;;
4565;SDS011;2295;51.050;14.608;2022-07-21T12:53:25;11.97;;;6.47;;
4565;SDS011;2295;51.050;14.608;2022-07-21T12:55:53;10.70;;;6.07;;
4565;SDS011;2295;51.050;14.608;2022-07-21T12:58:23;13.93;;;6.10;;
4565;SDS011;2295;51.050;14.608;2022-07-21T13:00:52;10.60;;;5.63;;
4565;SDS011;2295;51.050;14.608;2022-07-21T13:03:21;20.60;;;6.63;;
4565;SDS011;2295;51.050;14.608;2022-07-21T13:05:57;13.40;;;6.30;;
4565;SDS011;2295;51.050;14.608;2022-07-21T13:08:26;8.80;;;6.20;;
4565;SDS011;2295;51.050;14.608;2022-07-21T13:10:55;17.20;;;6.10;;
4565;SDS011;2295;51.050;14.608;2022-07-21T13:13:25;15.90;;;5.97;;
4565;SDS011;2295;51.050;14.608;2022-07-21T13:15:55;11.93;;;6.17;;
4565;SDS011;2295;51.050;14.608;2022-07-21T13:18:24;10.03;;;6.33;;
4565;SDS011;2295;51.050;14.608;2022-07-21T13:20:52;7.90;;;5.80;;
4565;SDS011;2295;51.050;14.608;2022-07-21T13:23:22;6.10;;;5.60;;
4565;SDS011;2295;51.050;14.608;2022-07-21T13:25:50;12.17;;;5.87;;
4565;SDS011;2295;51.050;14.608;2022-07-21T13:28:35;5.83;;;5.13;;
4565;SDS011;2295;51.050;14.608;2022-07-21T13:31:05;11.30;;;5.77;;
4565;SDS011;2295;51.050;14.608;2022-07-21T13:33:34;5.67;;;5.10;;
4565;SDS011;2295;51.050;14.608;2022-07-21T13:36:03;8.63;;;5.27;;
4565;SDS011;2295;51.050;14.608;2022-07-21T13:38:32;15.43;;;5.10;;
4565;SDS011;2295;51.050;14.608;2022-07-21T13:41:01;6.13;;;5.30;;
4565;SDS011;2295;51.050;14.608;2022-07-21T13:43:52;13.60;;;5.10;;
4565;SDS011;2295;51.050;14.608;2022-07-21T13:46:21;6.97;;;5.30;;
4565;SDS011;2295;51.050;14.608;2022-07-21T13:48:50;5.93;;;4.73;;
4565;SDS011;2295;51.050;14.608;2022-07-21T13:51:19;8.40;;;4.83;;
4565;SDS011;2295;51.050;14.608;2022-07-21T13:53:48;6.40;;;4.63;;
4565;SDS011;2295;51.050;14.608;2022-07-21T13:56:18;7.73;;;5.47;;
4565;SDS011;2295;51.050;14.608;2022-07-21T13:58:46;14.03;;;4.30;;
4565;SDS011;2295;51.050;14.608;2022-07-21T14:01:16;8.40;;;4.97;;
4565;SDS011;2295;51.050;14.608;2022-07-21T14:03:45;5.73;;;4.50;;
4565;SDS011;2295;51.050;14.608;2022-07-21T14:06:14;5.10;;;4.50;;
4565;SDS011;2295;51.050;14.608;2022-07-21T14:08:43;5.90;;;4.70;;
4565;SDS011;2295;51.050;14.608;2022-07-21T14:11:12;17.33;;;4.90;;
4565;SDS011;2295;51.050;14.608;2022-07-21T14:13:41;4.83;;;4.50;;
4565;SDS011;2295;51.050;14.608;2022-07-21T14:16:10;5.37;;;4.87;;
4565;SDS011;2295;51.050;14.608;2022-07-21T14:18:40;8.15;;;6.25;;
4565;SDS011;2295;51.050;14.608;2022-07-21T14:21:09;5.73;;;4.70;;
4565;SDS011;2295;51.050;14.608;2022-07-21T14:23:38;8.17;;;4.93;;
4565;SDS011;2295;51.050;14.608;2022-07-21T14:26:07;5.10;;;4.70;;
4565;SDS011;2295;51.050;14.608;2022-07-21T14:28:36;14.47;;;6.10;;
4565;SDS011;2295;51.050;14.608;2022-07-21T14:31:05;6.27;;;4.90;;
4565;SDS011;2295;51.050;14.608;2022-07-21T14:33:35;6.90;;;5.43;;
4565;SDS011;2295;51.050;14.608;2022-07-21T14:36:05;8.60;;;6.07;;
4565;SDS011;2295;51.050;14.608;2022-07-21T14:38:34;5.13;;;4.73;;
4565;SDS011;2295;51.050;14.608;2022-07-21T14:41:02;4.37;;;3.97;;
4565;SDS011;2295;51.050;14.608;2022-07-21T14:43:31;5.57;;;4.23;;
4565;SDS011;2295;51.050;14.608;2022-07-21T14:46:00;6.33;;;4.90;;
4565;SDS011;2295;51.050;14.608;2022-07-21T14:48:28;8.23;;;5.30;;
4565;SDS011;2295;51.050;14.608;2022-07-21T14:50:57;6.40;;;5.07;;
4565;SDS011;2295;51.050;14.608;2022-07-21T14:53:27;14.17;;;5.17;;
4565;SDS011;2295;51.050;14.608;2022-07-21T14:55:55;7.77;;;4.50;;
4565;SDS011;2295;51.050;14.608;2022-07-21T14:58:24;4.93;;;4.37;;
4565;SDS011;2295;51.050;14.608;2022-07-21T15:00:53;6.73;;;4.90;;
4565;SDS011;2295;51.050;14.608;2022-07-21T15:03:22;9.30;;;4.90;;
4565;SDS011;2295;51.050;14.608;2022-07-21T15:05:51;6.03;;;5.37;;
4565;SDS011;2295;51.050;14.608;2022-07-21T15:08:20;6.27;;;4.97;;
4565;SDS011;2295;51.050;14.608;2022-07-21T15:10:50;5.73;;;4.73;;
4565;SDS011;2295;51.050;14.608;2022-07-21T15:13:18;16.17;;;5.50;;
4565;SDS011;2295;51.050;14.608;2022-07-21T15:15:47;9.03;;;4.60;;
4565;SDS011;2295;51.050;14.608;2022-07-21T15:18:16;5.60;;;5.00;;
4565;SDS011;2295;51.050;14.608;2022-07-21T15:20:45;4.60;;;4.20;;
4565;SDS011;2295;51.050;14.608;2022-07-21T15:26:58;6.90;;;4.20;;
4565;SDS011;2295;51.050;14.608;2022-07-21T15:32:51;11.40;;;4.60;;
4565;SDS011;2295;51.050;14.608;2022-07-21T15:36:19;5.73;;;5.00;;
4565;SDS011;2295;51.050;14.608;2022-07-21T15:39:01;5.10;;;4.50;;
4565;SDS011;2295;51.050;14.608;2022-07-21T15:41:59;6.17;;;4.47;;